sensor_id;sensor_type;location;lat;lon;timestamp;P1;durP1;ratioP1;P2;durP2;ratioP2
6590;SDS011;3331;47.978;7.662;2022-10-16T00:00:18;6.53;;;2.20;;
6590;SDS011;3331;47.978;7.662;2022-10-16T00:02:45;2.43;;;2.03;;
6590;SDS011;3331;47.978;7.662;2022-10-16T00:05:11;4.40;;;2.00;;
6590;SDS011;3331;47.978;7.662;2022-10-16T00:07:39;2.80;;;2.00;;
6590;SDS011;3331;47.978;7.662;2022-10-16T00:10:06;6.03;;;2.10;;
6590;SDS011;3331;47.978;7.662;2022-10-16T00:12:33;2.07;;;1.67;;
6590;SDS011;3331;47.978;7.662;2022-10-16T00:15:00;3.77;;;1.87;;
6590;SDS011;3331;47.978;7.662;2022-10-16T00:17:26;4.60;;;2.30;;
6590;SDS011;3331;47.978;7.662;2022-10-16T00:19:53;4.30;;;2.23;;
6590;SDS011;3331;47.978;7.662;2022-10-16T00:22:19;4.70;;;2.03;;
6590;SDS011;3331;47.978;7.662;2022-10-16T00:24:47;2.47;;;2.27;;
6590;SDS011;3331;47.978;7.662;2022-10-16T00:27:14;4.43;;;2.53;;
6590;SDS011;3331;47.978;7.662;2022-10-16T00:29:41;2.47;;;1.63;;
6590;SDS011;3331;47.978;7.662;2022-10-16T00:32:08;5.33;;;2.57;;
6590;SDS011;3331;47.978;7.662;2022-10-16T00:34:35;3.20;;;2.17;;
6590;SDS011;3331;47.978;7.662;2022-10-16T00:37:02;5.90;;;2.17;;
6590;SDS011;3331;47.978;7.662;2022-10-16T00:39:31;3.90;;;2.03;;
6590;SDS011;3331;47.978;7.662;2022-10-16T00:42:02;7.53;;;2.17;;
6590;SDS011;3331;47.978;7.662;2022-10-16T00:44:45;2.53;;;2.00;;
6590;SDS011;3331;47.978;7.662;2022-10-16T00:47:13;3.10;;;1.90;;
6590;SDS011;3331;47.978;7.662;2022-10-16T00:49:41;3.57;;;1.83;;
6590;SDS011;3331;47.978;7.662;2022-10-16T00:52:08;3.03;;;2.30;;
6590;SDS011;3331;47.978;7.662;2022-10-16T00:54:36;2.30;;;2.10;;
6590;SDS011;3331;47.978;7.662;2022-10-16T00:57:05;2.60;;;1.80;;
6590;SDS011;3331;47.978;7.662;2022-10-16T00:59:32;5.20;;;2.70;;
6590;SDS011;3331;47.978;7.662;2022-10-16T01:01:59;2.80;;;2.27;;
6590;SDS011;3331;47.978;7.662;2022-10-16T01:04:26;3.57;;;2.30;;
6590;SDS011;3331;47.978;7.662;2022-10-16T01:06:56;5.47;;;2.47;;
6590;SDS011;3331;47.978;7.662;2022-10-16T01:09:26;2.87;;;1.93;;
6590;SDS011;3331;47.978;7.662;2022-10-16T01:11:57;3.63;;;2.03;;
6590;SDS011;3331;47.978;7.662;2022-10-16T01:14:31;4.00;;;1.90;;
6590;SDS011;3331;47.978;7.662;2022-10-16T01:17:00;2.73;;;1.63;;
6590;SDS011;3331;47.978;7.662;2022-10-16T01:19:33;5.73;;;2.37;;
6590;SDS011;3331;47.978;7.662;2022-10-16T01:22:02;2.60;;;1.50;;
6590;SDS011;3331;47.978;7.662;2022-10-16T01:24:31;5.03;;;1.80;;
6590;SDS011;3331;47.978;7.662;2022-10-16T01:27:05;5.93;;;2.00;;
6590;SDS011;3331;47.978;7.662;2022-10-16T01:29:33;1.73;;;1.57;;
6590;SDS011;3331;47.978;7.662;2022-10-16T01:32:02;1.70;;;1.60;;
6590;SDS011;3331;47.978;7.662;2022-10-16T01:34:33;2.37;;;1.67;;
6590;SDS011;3331;47.978;7.662;2022-10-16T01:37:02;2.60;;;1.50;;
6590;SDS011;3331;47.978;7.662;2022-10-16T01:39:32;3.63;;;2.40;;
6590;SDS011;3331;47.978;7.662;2022-10-16T01:42:03;4.20;;;2.23;;
6590;SDS011;3331;47.978;7.662;2022-10-16T01:44:33;3.03;;;2.37;;
6590;SDS011;3331;47.978;7.662;2022-10-16T01:47:02;2.50;;;2.30;;
6590;SDS011;3331;47.978;7.662;2022-10-16T01:49:38;2.67;;;1.97;;
6590;SDS011;3331;47.978;7.662;2022-10-16T01:52:07;2.03;;;1.67;;
6590;SDS011;3331;47.978;7.662;2022-10-16T01:54:34;4.40;;;2.17;;
6590;SDS011;3331;47.978;7.662;2022-10-16T01:57:01;3.10;;;2.60;;
6590;SDS011;3331;47.978;7.662;2022-10-16T01:59:30;3.43;;;2.43;;
6590;SDS011;3331;47.978;7.662;2022-10-16T02:01:59;5.27;;;1.93;;
6590;SDS011;3331;47.978;7.662;2022-10-16T02:04:28;1.57;;;1.30;;
6590;SDS011;3331;47.978;7.662;2022-10-16T02:06:55;4.37;;;2.43;;
6590;SDS011;3331;47.978;7.662;2022-10-16T02:09:22;3.93;;;2.63;;
6590;SDS011;3331;47.978;7.662;2022-10-16T02:11:49;2.93;;;1.83;;
6590;SDS011;3331;47.978;7.662;2022-10-16T02:14:16;5.83;;;2.10;;
6590;SDS011;3331;47.978;7.662;2022-10-16T02:16:45;3.03;;;2.17;;
6590;SDS011;3331;47.978;7.662;2022-10-16T02:19:13;2.20;;;2.00;;
6590;SDS011;3331;47.978;7.662;2022-10-16T02:21:43;3.37;;;2.13;;
6590;SDS011;3331;47.978;7.662;2022-10-16T02:24:12;3.87;;;2.40;;
6590;SDS011;3331;47.978;7.662;2022-10-16T02:26:41;3.73;;;2.00;;
6590;SDS011;3331;47.978;7.662;2022-10-16T02:29:11;3.17;;;2.33;;
6590;SDS011;3331;47.978;7.662;2022-10-16T02:31:38;9.40;;;2.47;;
6590;SDS011;3331;47.978;7.662;2022-10-16T02:34:07;3.57;;;1.80;;
6590;SDS011;3331;47.978;7.662;2022-10-16T02:36:38;4.20;;;2.03;;
6590;SDS011;3331;47.978;7.662;2022-10-16T02:39:05;2.57;;;1.90;;
6590;SDS011;3331;47.978;7.662;2022-10-16T02:41:33;3.27;;;2.27;;
6590;SDS011;3331;47.978;7.662;2022-10-16T02:44:00;4.33;;;1.80;;
6590;SDS011;3331;47.978;7.662;2022-10-16T02:46:27;6.13;;;2.30;;
6590;SDS011;3331;47.978;7.662;2022-10-16T02:48:54;2.27;;;2.07;;
6590;SDS011;3331;47.978;7.662;2022-10-16T02:51:20;5.07;;;1.90;;
6590;SDS011;3331;47.978;7.662;2022-10-16T02:53:48;2.67;;;2.07;;
6590;SDS011;3331;47.978;7.662;2022-10-16T02:56:15;3.93;;;2.10;;
6590;SDS011;3331;47.978;7.662;2022-10-16T02:58:43;1.40;;;1.30;;
6590;SDS011;3331;47.978;7.662;2022-10-16T03:01:10;2.27;;;1.90;;
6590;SDS011;3331;47.978;7.662;2022-10-16T03:03:37;5.73;;;2.00;;
6590;SDS011;3331;47.978;7.662;2022-10-16T03:06:04;4.77;;;1.90;;
6590;SDS011;3331;47.978;7.662;2022-10-16T03:08:33;4.70;;;2.20;;
6590;SDS011;3331;47.978;7.662;2022-10-16T03:11:04;3.77;;;2.07;;
6590;SDS011;3331;47.978;7.662;2022-10-16T03:13:31;2.60;;;1.20;;
6590;SDS011;3331;47.978;7.662;2022-10-16T03:15:57;4.80;;;1.77;;
6590;SDS011;3331;47.978;7.662;2022-10-16T03:18:24;2.20;;;1.80;;
6590;SDS011;3331;47.978;7.662;2022-10-16T03:20:50;4.70;;;2.13;;
6590;SDS011;3331;47.978;7.662;2022-10-16T03:23:17;3.20;;;1.50;;
6590;SDS011;3331;47.978;7.662;2022-10-16T03:25:43;4.70;;;2.00;;
6590;SDS011;3331;47.978;7.662;2022-10-16T03:28:11;4.20;;;1.70;;
6590;SDS011;3331;47.978;7.662;2022-10-16T03:30:38;3.47;;;2.00;;
6590;SDS011;3331;47.978;7.662;2022-10-16T03:33:06;5.37;;;1.77;;
6590;SDS011;3331;47.978;7.662;2022-10-16T03:35:32;4.87;;;2.43;;
6590;SDS011;3331;47.978;7.662;2022-10-16T03:37:59;2.30;;;1.93;;
6590;SDS011;3331;47.978;7.662;2022-10-16T03:40:26;2.33;;;2.00;;
6590;SDS011;3331;47.978;7.662;2022-10-16T03:42:53;10.40;;;2.23;;
6590;SDS011;3331;47.978;7.662;2022-10-16T03:45:24;3.20;;;1.37;;
6590;SDS011;3331;47.978;7.662;2022-10-16T03:47:51;7.90;;;2.20;;
6590;SDS011;3331;47.978;7.662;2022-10-16T03:50:17;4.03;;;1.90;;
6590;SDS011;3331;47.978;7.662;2022-10-16T03:52:44;1.93;;;1.57;;
6590;SDS011;3331;47.978;7.662;2022-10-16T03:55:13;5.83;;;2.30;;
6590;SDS011;3331;47.978;7.662;2022-10-16T03:57:40;1.93;;;1.73;;
6590;SDS011;3331;47.978;7.662;2022-10-16T04:00:06;2.37;;;1.90;;
6590;SDS011;3331;47.978;7.662;2022-10-16T04:02:35;1.60;;;1.50;;
6590;SDS011;3331;47.978;7.662;2022-10-16T04:05:02;3.83;;;2.10;;
6590;SDS011;3331;47.978;7.662;2022-10-16T04:07:28;2.83;;;1.90;;
6590;SDS011;3331;47.978;7.662;2022-10-16T04:09:55;4.60;;;1.80;;
6590;SDS011;3331;47.978;7.662;2022-10-16T04:12:23;2.63;;;1.33;;
6590;SDS011;3331;47.978;7.662;2022-10-16T04:14:50;4.20;;;1.47;;
6590;SDS011;3331;47.978;7.662;2022-10-16T04:17:17;7.23;;;2.40;;
6590;SDS011;3331;47.978;7.662;2022-10-16T04:22:22;3.67;;;1.77;;
6590;SDS011;3331;47.978;7.662;2022-10-16T04:24:50;2.47;;;1.80;;
6590;SDS011;3331;47.978;7.662;2022-10-16T04:27:22;1.80;;;1.70;;
6590;SDS011;3331;47.978;7.662;2022-10-16T04:29:49;2.00;;;1.60;;
6590;SDS011;3331;47.978;7.662;2022-10-16T04:32:16;2.83;;;1.90;;
6590;SDS011;3331;47.978;7.662;2022-10-16T04:34:43;5.47;;;2.50;;
6590;SDS011;3331;47.978;7.662;2022-10-16T04:37:09;4.43;;;2.67;;
6590;SDS011;3331;47.978;7.662;2022-10-16T04:39:40;2.20;;;1.90;;
6590;SDS011;3331;47.978;7.662;2022-10-16T04:42:08;5.10;;;2.07;;
6590;SDS011;3331;47.978;7.662;2022-10-16T04:44:35;2.87;;;1.83;;
6590;SDS011;3331;47.978;7.662;2022-10-16T04:47:03;3.40;;;2.00;;
6590;SDS011;3331;47.978;7.662;2022-10-16T04:49:30;5.20;;;2.00;;
6590;SDS011;3331;47.978;7.662;2022-10-16T04:51:57;1.90;;;1.80;;
6590;SDS011;3331;47.978;7.662;2022-10-16T04:54:23;2.53;;;2.07;;
6590;SDS011;3331;47.978;7.662;2022-10-16T04:56:51;4.47;;;2.03;;
6590;SDS011;3331;47.978;7.662;2022-10-16T04:59:18;1.90;;;1.60;;
6590;SDS011;3331;47.978;7.662;2022-10-16T05:01:48;2.03;;;1.80;;
6590;SDS011;3331;47.978;7.662;2022-10-16T05:04:15;3.50;;;1.70;;
6590;SDS011;3331;47.978;7.662;2022-10-16T05:06:42;3.07;;;2.00;;
6590;SDS011;3331;47.978;7.662;2022-10-16T05:09:10;5.20;;;1.80;;
6590;SDS011;3331;47.978;7.662;2022-10-16T05:11:36;5.53;;;2.20;;
6590;SDS011;3331;47.978;7.662;2022-10-16T05:14:04;3.23;;;2.10;;
6590;SDS011;3331;47.978;7.662;2022-10-16T05:16:31;2.53;;;1.53;;
6590;SDS011;3331;47.978;7.662;2022-10-16T05:18:58;1.60;;;1.50;;
6590;SDS011;3331;47.978;7.662;2022-10-16T05:21:25;2.50;;;2.30;;
6590;SDS011;3331;47.978;7.662;2022-10-16T05:23:52;5.20;;;2.30;;
6590;SDS011;3331;47.978;7.662;2022-10-16T05:26:19;1.73;;;1.63;;
6590;SDS011;3331;47.978;7.662;2022-10-16T05:28:47;4.20;;;1.80;;
6590;SDS011;3331;47.978;7.662;2022-10-16T05:31:36;2.77;;;2.30;;
6590;SDS011;3331;47.978;7.662;2022-10-16T05:34:05;2.57;;;2.20;;
6590;SDS011;3331;47.978;7.662;2022-10-16T05:36:31;3.97;;;2.00;;
6590;SDS011;3331;47.978;7.662;2022-10-16T05:38:58;4.50;;;1.50;;
6590;SDS011;3331;47.978;7.662;2022-10-16T05:41:25;3.70;;;2.07;;
6590;SDS011;3331;47.978;7.662;2022-10-16T05:43:51;5.43;;;1.90;;
6590;SDS011;3331;47.978;7.662;2022-10-16T05:46:18;6.00;;;2.13;;
6590;SDS011;3331;47.978;7.662;2022-10-16T05:48:47;2.50;;;1.70;;
6590;SDS011;3331;47.978;7.662;2022-10-16T05:51:14;4.70;;;1.80;;
6590;SDS011;3331;47.978;7.662;2022-10-16T05:53:40;3.23;;;1.93;;
6590;SDS011;3331;47.978;7.662;2022-10-16T05:56:10;2.80;;;1.97;;
6590;SDS011;3331;47.978;7.662;2022-10-16T05:58:38;5.83;;;2.30;;
6590;SDS011;3331;47.978;7.662;2022-10-16T06:01:06;2.30;;;1.83;;
6590;SDS011;3331;47.978;7.662;2022-10-16T06:03:36;4.43;;;1.90;;
6590;SDS011;3331;47.978;7.662;2022-10-16T06:06:12;4.67;;;2.33;;
6590;SDS011;3331;47.978;7.662;2022-10-16T06:08:39;5.43;;;2.47;;
6590;SDS011;3331;47.978;7.662;2022-10-16T06:11:08;2.77;;;2.43;;
6590;SDS011;3331;47.978;7.662;2022-10-16T06:13:36;3.27;;;2.97;;
6590;SDS011;3331;47.978;7.662;2022-10-16T06:16:04;4.23;;;2.33;;
6590;SDS011;3331;47.978;7.662;2022-10-16T06:18:33;3.77;;;2.47;;
6590;SDS011;3331;47.978;7.662;2022-10-16T06:20:59;3.57;;;2.27;;
6590;SDS011;3331;47.978;7.662;2022-10-16T06:23:28;15.60;;;10.93;;
6590;SDS011;3331;47.978;7.662;2022-10-16T06:25:55;27.63;;;12.33;;
6590;SDS011;3331;47.978;7.662;2022-10-16T07:59:35;4.37;;;3.87;;
6590;SDS011;3331;47.978;7.662;2022-10-16T08:05:35;2.73;;;2.30;;
6590;SDS011;3331;47.978;7.662;2022-10-16T08:08:06;4.73;;;2.20;;
6590;SDS011;3331;47.978;7.662;2022-10-16T08:10:52;2.83;;;2.30;;
6590;SDS011;3331;47.978;7.662;2022-10-16T08:13:30;2.23;;;2.03;;
6590;SDS011;3331;47.978;7.662;2022-10-16T08:19:07;3.57;;;2.40;;
6590;SDS011;3331;47.978;7.662;2022-10-16T08:21:34;4.30;;;1.90;;
6590;SDS011;3331;47.978;7.662;2022-10-16T08:24:03;4.00;;;1.97;;
6590;SDS011;3331;47.978;7.662;2022-10-16T08:29:52;4.97;;;1.80;;
6590;SDS011;3331;47.978;7.662;2022-10-16T09:32:28;6.17;;;2.03;;
6590;SDS011;3331;47.978;7.662;2022-10-16T09:35:09;2.73;;;1.63;;
6590;SDS011;3331;47.978;7.662;2022-10-16T09:37:49;2.30;;;1.80;;
6590;SDS011;3331;47.978;7.662;2022-10-16T09:40:30;3.57;;;2.07;;
6590;SDS011;3331;47.978;7.662;2022-10-16T09:43:16;2.30;;;2.10;;
6590;SDS011;3331;47.978;7.662;2022-10-16T09:48:54;5.97;;;4.10;;
6590;SDS011;3331;47.978;7.662;2022-10-16T09:51:28;2.93;;;1.87;;
6590;SDS011;3331;47.978;7.662;2022-10-16T09:53:56;4.10;;;2.60;;
6590;SDS011;3331;47.978;7.662;2022-10-16T09:56:47;1.97;;;1.80;;
6590;SDS011;3331;47.978;7.662;2022-10-16T09:59:17;4.77;;;1.83;;
6590;SDS011;3331;47.978;7.662;2022-10-16T10:01:47;5.73;;;1.47;;
6590;SDS011;3331;47.978;7.662;2022-10-16T10:04:16;2.63;;;1.40;;
6590;SDS011;3331;47.978;7.662;2022-10-16T10:06:56;1.57;;;1.40;;
6590;SDS011;3331;47.978;7.662;2022-10-16T10:09:25;2.33;;;1.80;;
6590;SDS011;3331;47.978;7.662;2022-10-16T10:12:24;6.93;;;1.40;;
6590;SDS011;3331;47.978;7.662;2022-10-16T10:15:16;2.20;;;1.30;;
6590;SDS011;3331;47.978;7.662;2022-10-16T10:17:46;6.27;;;1.57;;
6590;SDS011;3331;47.978;7.662;2022-10-16T10:25:53;1.50;;;1.40;;
6590;SDS011;3331;47.978;7.662;2022-10-16T10:28:38;1.40;;;1.30;;
6590;SDS011;3331;47.978;7.662;2022-10-16T10:31:10;1.50;;;1.27;;
6590;SDS011;3331;47.978;7.662;2022-10-16T10:33:46;1.47;;;1.17;;
6590;SDS011;3331;47.978;7.662;2022-10-16T10:36:22;1.63;;;1.37;;
6590;SDS011;3331;47.978;7.662;2022-10-16T10:38:50;1.60;;;1.30;;
6590;SDS011;3331;47.978;7.662;2022-10-16T10:41:26;1.10;;;1.07;;
6590;SDS011;3331;47.978;7.662;2022-10-16T10:44:01;1.20;;;1.20;;
6590;SDS011;3331;47.978;7.662;2022-10-16T10:46:31;1.50;;;1.40;;
6590;SDS011;3331;47.978;7.662;2022-10-16T10:49:02;1.97;;;1.43;;
6590;SDS011;3331;47.978;7.662;2022-10-16T10:51:34;1.80;;;1.70;;
6590;SDS011;3331;47.978;7.662;2022-10-16T10:54:10;1.60;;;1.50;;
6590;SDS011;3331;47.978;7.662;2022-10-16T10:56:46;5.07;;;1.57;;
6590;SDS011;3331;47.978;7.662;2022-10-16T10:59:24;1.67;;;1.57;;
6590;SDS011;3331;47.978;7.662;2022-10-16T11:01:54;1.87;;;1.47;;
6590;SDS011;3331;47.978;7.662;2022-10-16T11:07:09;1.27;;;1.17;;
6590;SDS011;3331;47.978;7.662;2022-10-16T11:09:38;1.67;;;1.47;;
6590;SDS011;3331;47.978;7.662;2022-10-16T11:12:09;1.87;;;1.40;;
6590;SDS011;3331;47.978;7.662;2022-10-16T11:14:40;1.43;;;1.33;;
6590;SDS011;3331;47.978;7.662;2022-10-16T11:17:08;2.80;;;1.50;;
6590;SDS011;3331;47.978;7.662;2022-10-16T11:19:37;4.27;;;1.43;;
6590;SDS011;3331;47.978;7.662;2022-10-16T11:22:07;2.43;;;1.40;;
6590;SDS011;3331;47.978;7.662;2022-10-16T11:24:37;2.07;;;1.30;;
6590;SDS011;3331;47.978;7.662;2022-10-16T11:27:09;1.37;;;1.27;;
6590;SDS011;3331;47.978;7.662;2022-10-16T11:29:43;2.03;;;1.57;;
6590;SDS011;3331;47.978;7.662;2022-10-16T11:32:13;2.63;;;1.37;;
6590;SDS011;3331;47.978;7.662;2022-10-16T11:34:43;1.50;;;1.40;;
6590;SDS011;3331;47.978;7.662;2022-10-16T11:37:11;1.80;;;1.23;;
6590;SDS011;3331;47.978;7.662;2022-10-16T11:39:40;1.33;;;1.23;;
6590;SDS011;3331;47.978;7.662;2022-10-16T11:42:10;1.87;;;1.27;;
6590;SDS011;3331;47.978;7.662;2022-10-16T11:47:26;4.23;;;1.20;;
6590;SDS011;3331;47.978;7.662;2022-10-16T11:49:56;2.47;;;1.23;;
6590;SDS011;3331;47.978;7.662;2022-10-16T11:52:24;1.30;;;1.20;;
6590;SDS011;3331;47.978;7.662;2022-10-16T11:54:53;2.37;;;1.37;;
6590;SDS011;3331;47.978;7.662;2022-10-16T11:57:23;2.50;;;1.37;;
6590;SDS011;3331;47.978;7.662;2022-10-16T11:59:51;3.97;;;1.30;;
6590;SDS011;3331;47.978;7.662;2022-10-16T12:02:26;2.73;;;1.40;;
6590;SDS011;3331;47.978;7.662;2022-10-16T12:04:56;1.73;;;1.30;;
6590;SDS011;3331;47.978;7.662;2022-10-16T12:07:29;1.93;;;1.20;;
6590;SDS011;3331;47.978;7.662;2022-10-16T12:09:58;3.50;;;1.60;;
6590;SDS011;3331;47.978;7.662;2022-10-16T12:12:39;4.10;;;1.40;;
6590;SDS011;3331;47.978;7.662;2022-10-16T12:15:18;1.27;;;1.17;;
6590;SDS011;3331;47.978;7.662;2022-10-16T12:17:45;2.10;;;1.50;;
6590;SDS011;3331;47.978;7.662;2022-10-16T12:20:19;3.50;;;1.67;;
6590;SDS011;3331;47.978;7.662;2022-10-16T12:22:47;1.93;;;1.50;;
6590;SDS011;3331;47.978;7.662;2022-10-16T12:25:19;4.33;;;1.63;;
6590;SDS011;3331;47.978;7.662;2022-10-16T12:27:53;3.13;;;1.40;;
6590;SDS011;3331;47.978;7.662;2022-10-16T12:30:20;3.37;;;1.50;;
6590;SDS011;3331;47.978;7.662;2022-10-16T12:32:53;1.70;;;1.30;;
6590;SDS011;3331;47.978;7.662;2022-10-16T12:35:20;5.23;;;1.80;;
6590;SDS011;3331;47.978;7.662;2022-10-16T12:37:49;2.13;;;1.50;;
6590;SDS011;3331;47.978;7.662;2022-10-16T12:40:23;1.80;;;1.70;;
6590;SDS011;3331;47.978;7.662;2022-10-16T12:42:51;3.67;;;1.37;;
6590;SDS011;3331;47.978;7.662;2022-10-16T12:45:28;1.40;;;1.30;;
6590;SDS011;3331;47.978;7.662;2022-10-16T12:47:56;4.30;;;1.67;;
6590;SDS011;3331;47.978;7.662;2022-10-16T12:50:24;1.30;;;1.20;;
6590;SDS011;3331;47.978;7.662;2022-10-16T12:52:51;7.97;;;1.43;;
6590;SDS011;3331;47.978;7.662;2022-10-16T12:55:18;1.70;;;1.37;;
6590;SDS011;3331;47.978;7.662;2022-10-16T12:57:47;4.53;;;1.50;;
6590;SDS011;3331;47.978;7.662;2022-10-16T13:00:23;1.60;;;1.50;;
6590;SDS011;3331;47.978;7.662;2022-10-16T13:02:55;3.53;;;1.37;;
6590;SDS011;3331;47.978;7.662;2022-10-16T13:05:26;3.83;;;1.20;;
6590;SDS011;3331;47.978;7.662;2022-10-16T13:07:57;4.67;;;1.57;;
6590;SDS011;3331;47.978;7.662;2022-10-16T13:10:28;2.63;;;1.37;;
6590;SDS011;3331;47.978;7.662;2022-10-16T13:13:01;4.20;;;1.97;;
6590;SDS011;3331;47.978;7.662;2022-10-16T13:15:35;1.90;;;1.60;;
6590;SDS011;3331;47.978;7.662;2022-10-16T13:18:05;1.20;;;1.10;;
6590;SDS011;3331;47.978;7.662;2022-10-16T13:20:46;1.87;;;1.50;;
6590;SDS011;3331;47.978;7.662;2022-10-16T13:23:19;1.60;;;1.30;;
6590;SDS011;3331;47.978;7.662;2022-10-16T13:25:54;3.60;;;1.20;;
6590;SDS011;3331;47.978;7.662;2022-10-16T13:28:27;1.87;;;1.40;;
6590;SDS011;3331;47.978;7.662;2022-10-16T13:30:55;6.70;;;1.33;;
6590;SDS011;3331;47.978;7.662;2022-10-16T13:33:24;1.77;;;1.07;;
6590;SDS011;3331;47.978;7.662;2022-10-16T13:35:53;1.23;;;1.10;;
6590;SDS011;3331;47.978;7.662;2022-10-16T13:38:21;1.40;;;1.30;;
6590;SDS011;3331;47.978;7.662;2022-10-16T13:40:49;1.00;;;1.00;;
6590;SDS011;3331;47.978;7.662;2022-10-16T13:43:16;0.73;;;0.73;;
6590;SDS011;3331;47.978;7.662;2022-10-16T13:45:51;2.77;;;1.17;;
6590;SDS011;3331;47.978;7.662;2022-10-16T13:48:20;0.80;;;0.80;;
6590;SDS011;3331;47.978;7.662;2022-10-16T13:50:47;2.60;;;1.40;;
6590;SDS011;3331;47.978;7.662;2022-10-16T13:53:41;1.20;;;1.20;;
6590;SDS011;3331;47.978;7.662;2022-10-16T13:56:10;1.33;;;1.10;;
6590;SDS011;3331;47.978;7.662;2022-10-16T13:58:36;1.50;;;1.10;;
6590;SDS011;3331;47.978;7.662;2022-10-16T14:01:05;1.63;;;1.30;;
6590;SDS011;3331;47.978;7.662;2022-10-16T14:03:33;1.60;;;1.50;;
6590;SDS011;3331;47.978;7.662;2022-10-16T14:06:03;1.20;;;1.10;;
6590;SDS011;3331;47.978;7.662;2022-10-16T14:08:31;1.10;;;1.00;;
6590;SDS011;3331;47.978;7.662;2022-10-16T14:10:58;1.90;;;1.10;;
6590;SDS011;3331;47.978;7.662;2022-10-16T14:13:28;4.00;;;1.23;;
6590;SDS011;3331;47.978;7.662;2022-10-16T14:15:55;5.23;;;1.60;;
6590;SDS011;3331;47.978;7.662;2022-10-16T14:18:24;1.67;;;1.33;;
6590;SDS011;3331;47.978;7.662;2022-10-16T14:20:52;1.17;;;1.07;;
6590;SDS011;3331;47.978;7.662;2022-10-16T14:23:20;2.30;;;1.23;;
6590;SDS011;3331;47.978;7.662;2022-10-16T14:25:48;0.97;;;0.93;;
6590;SDS011;3331;47.978;7.662;2022-10-16T14:28:15;1.60;;;1.47;;
6590;SDS011;3331;47.978;7.662;2022-10-16T14:30:49;1.67;;;1.20;;
6590;SDS011;3331;47.978;7.662;2022-10-16T14:33:20;1.20;;;1.10;;
6590;SDS011;3331;47.978;7.662;2022-10-16T14:35:56;1.30;;;1.20;;
6590;SDS011;3331;47.978;7.662;2022-10-16T14:38:27;1.10;;;1.00;;
6590;SDS011;3331;47.978;7.662;2022-10-16T14:40:54;2.47;;;1.10;;
6590;SDS011;3331;47.978;7.662;2022-10-16T14:43:24;1.20;;;1.10;;
6590;SDS011;3331;47.978;7.662;2022-10-16T14:45:52;1.83;;;1.40;;
6590;SDS011;3331;47.978;7.662;2022-10-16T14:48:20;1.27;;;1.17;;
6590;SDS011;3331;47.978;7.662;2022-10-16T14:50:46;1.40;;;1.30;;
6590;SDS011;3331;47.978;7.662;2022-10-16T14:53:13;3.27;;;1.20;;
6590;SDS011;3331;47.978;7.662;2022-10-16T14:55:41;1.23;;;1.23;;
6590;SDS011;3331;47.978;7.662;2022-10-16T14:58:21;1.20;;;1.10;;
6590;SDS011;3331;47.978;7.662;2022-10-16T15:00:49;1.40;;;1.30;;
6590;SDS011;3331;47.978;7.662;2022-10-16T15:03:16;1.40;;;1.27;;
6590;SDS011;3331;47.978;7.662;2022-10-16T15:05:42;1.40;;;1.30;;
6590;SDS011;3331;47.978;7.662;2022-10-16T15:08:09;1.60;;;1.30;;
6590;SDS011;3331;47.978;7.662;2022-10-16T15:10:37;1.73;;;1.17;;
6590;SDS011;3331;47.978;7.662;2022-10-16T15:16:04;1.60;;;1.00;;
6590;SDS011;3331;47.978;7.662;2022-10-16T15:18:30;1.20;;;1.20;;
6590;SDS011;3331;47.978;7.662;2022-10-16T15:20:57;1.10;;;1.00;;
6590;SDS011;3331;47.978;7.662;2022-10-16T15:23:23;2.10;;;1.30;;
6590;SDS011;3331;47.978;7.662;2022-10-16T15:25:50;1.33;;;1.30;;
6590;SDS011;3331;47.978;7.662;2022-10-16T15:28:17;1.23;;;1.13;;
6590;SDS011;3331;47.978;7.662;2022-10-16T15:30:45;1.30;;;1.20;;
6590;SDS011;3331;47.978;7.662;2022-10-16T15:33:13;1.43;;;1.33;;
6590;SDS011;3331;47.978;7.662;2022-10-16T15:35:40;2.27;;;1.40;;
6590;SDS011;3331;47.978;7.662;2022-10-16T15:38:08;1.40;;;1.30;;
6590;SDS011;3331;47.978;7.662;2022-10-16T15:40:35;1.40;;;1.30;;
6590;SDS011;3331;47.978;7.662;2022-10-16T15:43:02;3.17;;;1.60;;
6590;SDS011;3331;47.978;7.662;2022-10-16T15:45:28;2.20;;;1.33;;
6590;SDS011;3331;47.978;7.662;2022-10-16T15:47:55;3.43;;;1.40;;
6590;SDS011;3331;47.978;7.662;2022-10-16T15:50:23;3.27;;;1.50;;
6590;SDS011;3331;47.978;7.662;2022-10-16T15:52:50;1.43;;;1.33;;
6590;SDS011;3331;47.978;7.662;2022-10-16T15:55:17;1.60;;;1.50;;
6590;SDS011;3331;47.978;7.662;2022-10-16T15:57:43;6.70;;;1.90;;
6590;SDS011;3331;47.978;7.662;2022-10-16T16:00:11;1.70;;;1.27;;
6590;SDS011;3331;47.978;7.662;2022-10-16T16:02:38;1.67;;;1.50;;
6590;SDS011;3331;47.978;7.662;2022-10-16T16:05:05;1.10;;;1.00;;
6590;SDS011;3331;47.978;7.662;2022-10-16T16:07:34;1.40;;;1.30;;
6590;SDS011;3331;47.978;7.662;2022-10-16T16:10:01;2.00;;;1.80;;
6590;SDS011;3331;47.978;7.662;2022-10-16T16:12:27;2.87;;;1.60;;
6590;SDS011;3331;47.978;7.662;2022-10-16T16:14:54;7.23;;;1.50;;
6590;SDS011;3331;47.978;7.662;2022-10-16T16:17:21;1.47;;;1.37;;
6590;SDS011;3331;47.978;7.662;2022-10-16T16:19:49;3.67;;;2.50;;
6590;SDS011;3331;47.978;7.662;2022-10-16T16:22:15;2.53;;;1.37;;
6590;SDS011;3331;47.978;7.662;2022-10-16T16:30:17;2.50;;;1.50;;
6590;SDS011;3331;47.978;7.662;2022-10-16T16:32:45;1.97;;;1.47;;
6590;SDS011;3331;47.978;7.662;2022-10-16T16:35:11;1.60;;;1.40;;
6590;SDS011;3331;47.978;7.662;2022-10-16T16:37:38;1.67;;;1.57;;
6590;SDS011;3331;47.978;7.662;2022-10-16T16:40:05;1.27;;;1.17;;
6590;SDS011;3331;47.978;7.662;2022-10-16T16:42:31;2.27;;;1.70;;
6590;SDS011;3331;47.978;7.662;2022-10-16T16:44:58;1.50;;;1.40;;
6590;SDS011;3331;47.978;7.662;2022-10-16T16:47:26;1.53;;;1.40;;
6590;SDS011;3331;47.978;7.662;2022-10-16T16:49:52;2.57;;;1.63;;
6590;SDS011;3331;47.978;7.662;2022-10-16T16:52:19;1.27;;;1.27;;
6590;SDS011;3331;47.978;7.662;2022-10-16T16:54:47;2.03;;;1.70;;
6590;SDS011;3331;47.978;7.662;2022-10-16T16:57:16;1.87;;;1.50;;
6590;SDS011;3331;47.978;7.662;2022-10-16T16:59:43;2.00;;;1.60;;
6590;SDS011;3331;47.978;7.662;2022-10-16T17:02:09;1.47;;;1.37;;
6590;SDS011;3331;47.978;7.662;2022-10-16T17:04:38;1.70;;;1.60;;
6590;SDS011;3331;47.978;7.662;2022-10-16T17:07:05;5.87;;;1.70;;
6590;SDS011;3331;47.978;7.662;2022-10-16T17:09:31;2.07;;;1.20;;
6590;SDS011;3331;47.978;7.662;2022-10-16T17:11:58;2.17;;;1.57;;
6590;SDS011;3331;47.978;7.662;2022-10-16T17:14:26;2.43;;;1.60;;
6590;SDS011;3331;47.978;7.662;2022-10-16T17:16:52;1.77;;;1.40;;
6590;SDS011;3331;47.978;7.662;2022-10-16T17:19:19;1.90;;;1.33;;
6590;SDS011;3331;47.978;7.662;2022-10-16T17:21:48;2.10;;;1.27;;
6590;SDS011;3331;47.978;7.662;2022-10-16T17:24:15;1.23;;;1.13;;
6590;SDS011;3331;47.978;7.662;2022-10-16T17:26:43;2.00;;;1.50;;
6590;SDS011;3331;47.978;7.662;2022-10-16T17:29:13;2.27;;;1.40;;
6590;SDS011;3331;47.978;7.662;2022-10-16T17:31:40;1.73;;;1.60;;
6590;SDS011;3331;47.978;7.662;2022-10-16T17:34:07;2.10;;;1.90;;
6590;SDS011;3331;47.978;7.662;2022-10-16T17:36:35;1.83;;;1.40;;
6590;SDS011;3331;47.978;7.662;2022-10-16T17:39:04;1.70;;;1.57;;
6590;SDS011;3331;47.978;7.662;2022-10-16T17:41:31;2.50;;;1.40;;
6590;SDS011;3331;47.978;7.662;2022-10-16T17:43:59;2.10;;;1.90;;
6590;SDS011;3331;47.978;7.662;2022-10-16T17:46:26;1.97;;;1.70;;
6590;SDS011;3331;47.978;7.662;2022-10-16T17:48:53;2.70;;;2.13;;
6590;SDS011;3331;47.978;7.662;2022-10-16T17:51:20;2.27;;;2.00;;
6590;SDS011;3331;47.978;7.662;2022-10-16T17:53:47;3.73;;;1.87;;
6590;SDS011;3331;47.978;7.662;2022-10-16T17:56:15;3.77;;;2.00;;
6590;SDS011;3331;47.978;7.662;2022-10-16T17:58:41;3.40;;;2.00;;
6590;SDS011;3331;47.978;7.662;2022-10-16T18:01:11;3.50;;;2.17;;
6590;SDS011;3331;47.978;7.662;2022-10-16T18:03:38;7.27;;;2.10;;
6590;SDS011;3331;47.978;7.662;2022-10-16T18:06:04;6.37;;;2.40;;
6590;SDS011;3331;47.978;7.662;2022-10-16T18:08:31;7.03;;;2.03;;
6590;SDS011;3331;47.978;7.662;2022-10-16T18:11:00;6.17;;;2.07;;
6590;SDS011;3331;47.978;7.662;2022-10-16T18:13:28;3.67;;;2.23;;
6590;SDS011;3331;47.978;7.662;2022-10-16T18:15:58;3.23;;;1.80;;
6590;SDS011;3331;47.978;7.662;2022-10-16T18:18:24;8.80;;;1.97;;
6590;SDS011;3331;47.978;7.662;2022-10-16T18:20:55;3.67;;;2.27;;
6590;SDS011;3331;47.978;7.662;2022-10-16T18:23:21;4.00;;;2.57;;
6590;SDS011;3331;47.978;7.662;2022-10-16T18:25:48;7.70;;;2.97;;
6590;SDS011;3331;47.978;7.662;2022-10-16T18:28:14;6.23;;;2.87;;
6590;SDS011;3331;47.978;7.662;2022-10-16T18:30:42;5.00;;;2.40;;
6590;SDS011;3331;47.978;7.662;2022-10-16T18:33:09;4.10;;;2.13;;